sensor_id;sensor_type;location;lat;lon;timestamp;P1;durP1;ratioP1;P2;durP2;ratioP2
5945;SDS011;2998;48.206;16.394;2022-10-03T00:04:23;3.53;;;3.23;;
5945;SDS011;2998;48.206;16.394;2022-10-03T00:07:02;3.90;;;3.10;;
5945;SDS011;2998;48.206;16.394;2022-10-03T00:09:45;2.87;;;2.67;;
5945;SDS011;2998;48.206;16.394;2022-10-03T00:12:34;2.97;;;2.87;;
5945;SDS011;2998;48.206;16.394;2022-10-03T00:15:09;3.27;;;3.07;;
5945;SDS011;2998;48.206;16.394;2022-10-03T00:17:40;3.27;;;2.93;;
5945;SDS011;2998;48.206;16.394;2022-10-03T00:20:28;3.43;;;3.23;;
5945;SDS011;2998;48.206;16.394;2022-10-03T00:23:12;4.87;;;3.20;;
5945;SDS011;2998;48.206;16.394;2022-10-03T00:25:46;3.10;;;2.90;;
5945;SDS011;2998;48.206;16.394;2022-10-03T00:28:19;3.63;;;3.40;;
5945;SDS011;2998;48.206;16.394;2022-10-03T00:31:08;4.27;;;3.97;;
5945;SDS011;2998;48.206;16.394;2022-10-03T00:33:43;3.40;;;3.20;;
5945;SDS011;2998;48.206;16.394;2022-10-03T00:36:20;5.00;;;4.60;;
5945;SDS011;2998;48.206;16.394;2022-10-03T00:41:54;3.63;;;3.43;;
5945;SDS011;2998;48.206;16.394;2022-10-03T00:48:05;3.90;;;3.50;;
5945;SDS011;2998;48.206;16.394;2022-10-03T00:50:43;3.83;;;3.53;;
5945;SDS011;2998;48.206;16.394;2022-10-03T00:56:24;4.77;;;4.37;;
5945;SDS011;2998;48.206;16.394;2022-10-03T00:59:12;9.83;;;4.20;;
5945;SDS011;2998;48.206;16.394;2022-10-03T01:01:48;5.60;;;4.97;;
5945;SDS011;2998;48.206;16.394;2022-10-03T01:04:23;3.93;;;3.63;;
5945;SDS011;2998;48.206;16.394;2022-10-03T01:07:00;4.40;;;4.20;;
5945;SDS011;2998;48.206;16.394;2022-10-03T01:09:35;3.77;;;3.57;;
5945;SDS011;2998;48.206;16.394;2022-10-03T01:15:12;5.80;;;4.23;;
5945;SDS011;2998;48.206;16.394;2022-10-03T01:17:49;4.23;;;3.93;;
5945;SDS011;2998;48.206;16.394;2022-10-03T01:20:24;4.20;;;4.00;;
5945;SDS011;2998;48.206;16.394;2022-10-03T01:23:09;4.47;;;4.13;;
5945;SDS011;2998;48.206;16.394;2022-10-03T01:25:51;6.03;;;5.43;;
5945;SDS011;2998;48.206;16.394;2022-10-03T01:28:38;6.73;;;4.60;;
5945;SDS011;2998;48.206;16.394;2022-10-03T01:31:29;6.83;;;4.77;;
5945;SDS011;2998;48.206;16.394;2022-10-03T01:34:04;4.97;;;4.50;;
5945;SDS011;2998;48.206;16.394;2022-10-03T01:36:38;5.10;;;4.60;;
5945;SDS011;2998;48.206;16.394;2022-10-03T01:39:13;7.57;;;5.43;;
5945;SDS011;2998;48.206;16.394;2022-10-03T01:41:46;5.63;;;5.13;;
5945;SDS011;2998;48.206;16.394;2022-10-03T01:44:19;5.20;;;4.90;;
5945;SDS011;2998;48.206;16.394;2022-10-03T01:46:51;4.60;;;4.40;;
5945;SDS011;2998;48.206;16.394;2022-10-03T01:49:23;4.80;;;3.60;;
5945;SDS011;2998;48.206;16.394;2022-10-03T01:51:57;3.60;;;3.33;;
5945;SDS011;2998;48.206;16.394;2022-10-03T01:54:28;3.57;;;3.27;;
5945;SDS011;2998;48.206;16.394;2022-10-03T01:57:08;7.30;;;3.10;;
5945;SDS011;2998;48.206;16.394;2022-10-03T01:59:41;4.17;;;2.50;;
5945;SDS011;2998;48.206;16.394;2022-10-03T02:02:18;2.70;;;2.50;;
5945;SDS011;2998;48.206;16.394;2022-10-03T02:04:54;2.60;;;2.50;;
5945;SDS011;2998;48.206;16.394;2022-10-03T02:07:27;3.73;;;2.80;;
5945;SDS011;2998;48.206;16.394;2022-10-03T02:10:04;3.93;;;2.57;;
5945;SDS011;2998;48.206;16.394;2022-10-03T02:12:34;6.70;;;3.80;;
5945;SDS011;2998;48.206;16.394;2022-10-03T02:15:10;5.33;;;3.97;;
5945;SDS011;2998;48.206;16.394;2022-10-03T02:17:42;5.33;;;3.43;;
5945;SDS011;2998;48.206;16.394;2022-10-03T02:20:18;6.37;;;3.93;;
5945;SDS011;2998;48.206;16.394;2022-10-03T02:22:51;4.87;;;4.47;;
5945;SDS011;2998;48.206;16.394;2022-10-03T02:25:23;4.37;;;3.13;;
5945;SDS011;2998;48.206;16.394;2022-10-03T02:28:07;3.93;;;3.60;;
5945;SDS011;2998;48.206;16.394;2022-10-03T02:30:53;4.40;;;3.47;;
5945;SDS011;2998;48.206;16.394;2022-10-03T02:33:38;3.57;;;3.37;;
5945;SDS011;2998;48.206;16.394;2022-10-03T02:42:34;3.73;;;2.90;;
5945;SDS011;2998;48.206;16.394;2022-10-03T02:48:31;3.40;;;3.17;;
5945;SDS011;2998;48.206;16.394;2022-10-03T02:51:26;12.33;;;9.40;;
5945;SDS011;2998;48.206;16.394;2022-10-03T03:03:29;5.70;;;5.30;;
5945;SDS011;2998;48.206;16.394;2022-10-03T03:06:24;3.80;;;3.60;;
5945;SDS011;2998;48.206;16.394;2022-10-03T03:09:06;3.90;;;3.67;;
5945;SDS011;2998;48.206;16.394;2022-10-03T03:18:32;3.20;;;3.00;;
5945;SDS011;2998;48.206;16.394;2022-10-03T03:21:07;4.13;;;3.77;;
5945;SDS011;2998;48.206;16.394;2022-10-03T03:23:49;3.67;;;3.47;;
5945;SDS011;2998;48.206;16.394;2022-10-03T03:26:27;4.20;;;3.80;;
5945;SDS011;2998;48.206;16.394;2022-10-03T03:29:05;4.63;;;4.17;;
5945;SDS011;2998;48.206;16.394;2022-10-03T03:31:38;3.80;;;3.30;;
5945;SDS011;2998;48.206;16.394;2022-10-03T03:34:12;3.93;;;3.63;;
5945;SDS011;2998;48.206;16.394;2022-10-03T03:36:45;3.70;;;3.40;;
5945;SDS011;2998;48.206;16.394;2022-10-03T03:39:32;3.70;;;3.03;;
5945;SDS011;2998;48.206;16.394;2022-10-03T03:45:14;3.20;;;3.00;;
5945;SDS011;2998;48.206;16.394;2022-10-03T03:48:03;3.73;;;3.43;;
5945;SDS011;2998;48.206;16.394;2022-10-03T03:50:44;5.43;;;5.00;;
5945;SDS011;2998;48.206;16.394;2022-10-03T03:53:20;5.10;;;4.27;;
5945;SDS011;2998;48.206;16.394;2022-10-03T03:56:09;4.57;;;4.20;;
5945;SDS011;2998;48.206;16.394;2022-10-03T03:58:43;7.60;;;5.00;;
5945;SDS011;2998;48.206;16.394;2022-10-03T04:04:09;4.77;;;4.37;;
5945;SDS011;2998;48.206;16.394;2022-10-03T04:06:45;6.30;;;4.90;;
5945;SDS011;2998;48.206;16.394;2022-10-03T04:09:36;4.83;;;4.27;;
5945;SDS011;2998;48.206;16.394;2022-10-03T04:12:13;4.40;;;4.10;;
5945;SDS011;2998;48.206;16.394;2022-10-03T04:17:48;5.90;;;4.27;;
5945;SDS011;2998;48.206;16.394;2022-10-03T04:20:52;5.97;;;4.00;;
5945;SDS011;2998;48.206;16.394;2022-10-03T04:23:30;5.00;;;4.50;;
5945;SDS011;2998;48.206;16.394;2022-10-03T04:26:23;9.67;;;6.20;;
5945;SDS011;2998;48.206;16.394;2022-10-03T04:31:58;5.40;;;5.00;;
5945;SDS011;2998;48.206;16.394;2022-10-03T04:34:38;6.00;;;4.90;;
5945;SDS011;2998;48.206;16.394;2022-10-03T04:40:06;7.00;;;6.13;;
5945;SDS011;2998;48.206;16.394;2022-10-03T04:42:45;7.40;;;5.00;;
5945;SDS011;2998;48.206;16.394;2022-10-03T04:45:18;4.97;;;4.50;;
5945;SDS011;2998;48.206;16.394;2022-10-03T04:47:56;8.63;;;4.10;;
5945;SDS011;2998;48.206;16.394;2022-10-03T04:50:29;7.47;;;5.53;;
5945;SDS011;2998;48.206;16.394;2022-10-03T04:56:10;7.50;;;4.77;;
5945;SDS011;2998;48.206;16.394;2022-10-03T04:58:48;4.73;;;4.17;;
5945;SDS011;2998;48.206;16.394;2022-10-03T05:01:19;7.10;;;4.10;;
5945;SDS011;2998;48.206;16.394;2022-10-03T05:03:53;3.57;;;3.27;;
5945;SDS011;2998;48.206;16.394;2022-10-03T05:06:33;12.07;;;5.63;;
5945;SDS011;2998;48.206;16.394;2022-10-03T05:09:13;6.17;;;3.93;;
5945;SDS011;2998;48.206;16.394;2022-10-03T05:11:48;10.07;;;3.70;;
5945;SDS011;2998;48.206;16.394;2022-10-03T05:14:25;7.80;;;4.03;;
5945;SDS011;2998;48.206;16.394;2022-10-03T05:16:59;6.13;;;5.63;;
5945;SDS011;2998;48.206;16.394;2022-10-03T05:19:36;11.57;;;8.20;;
5945;SDS011;2998;48.206;16.394;2022-10-03T05:22:18;7.63;;;5.70;;
5945;SDS011;2998;48.206;16.394;2022-10-03T05:24:51;8.03;;;5.07;;
5945;SDS011;2998;48.206;16.394;2022-10-03T05:27:26;5.97;;;5.40;;
5945;SDS011;2998;48.206;16.394;2022-10-03T05:30:02;15.80;;;8.40;;
5945;SDS011;2998;48.206;16.394;2022-10-03T05:32:36;11.90;;;9.60;;
5945;SDS011;2998;48.206;16.394;2022-10-03T05:35:18;10.63;;;9.63;;
5945;SDS011;2998;48.206;16.394;2022-10-03T05:41:06;9.13;;;7.10;;
5945;SDS011;2998;48.206;16.394;2022-10-03T05:43:44;12.73;;;8.50;;
5945;SDS011;2998;48.206;16.394;2022-10-03T05:46:20;4.93;;;4.53;;
5945;SDS011;2998;48.206;16.394;2022-10-03T05:48:55;6.80;;;3.93;;
5945;SDS011;2998;48.206;16.394;2022-10-03T05:54:41;7.87;;;4.30;;
5945;SDS011;2998;48.206;16.394;2022-10-03T05:57:19;6.00;;;3.60;;
5945;SDS011;2998;48.206;16.394;2022-10-03T06:00:01;4.27;;;3.87;;
5945;SDS011;2998;48.206;16.394;2022-10-03T06:02:54;8.93;;;3.90;;
5945;SDS011;2998;48.206;16.394;2022-10-03T06:05:53;7.23;;;5.10;;
5945;SDS011;2998;48.206;16.394;2022-10-03T06:08:43;4.77;;;2.90;;
5945;SDS011;2998;48.206;16.394;2022-10-03T06:11:19;3.50;;;2.60;;
5945;SDS011;2998;48.206;16.394;2022-10-03T06:14:13;4.17;;;2.60;;
5945;SDS011;2998;48.206;16.394;2022-10-03T06:16:54;2.27;;;2.07;;
5945;SDS011;2998;48.206;16.394;2022-10-03T06:19:34;6.73;;;2.10;;
5945;SDS011;2998;48.206;16.394;2022-10-03T06:25:18;3.57;;;1.80;;
5945;SDS011;2998;48.206;16.394;2022-10-03T06:31:12;19.77;;;14.10;;
5945;SDS011;2998;48.206;16.394;2022-10-03T06:43:34;6.40;;;3.30;;
5945;SDS011;2998;48.206;16.394;2022-10-03T06:49:29;4.23;;;3.47;;
5945;SDS011;2998;48.206;16.394;2022-10-03T07:01:34;5.00;;;2.00;;
5945;SDS011;2998;48.206;16.394;2022-10-03T07:07:22;6.57;;;2.37;;
5945;SDS011;2998;48.206;16.394;2022-10-03T07:16:16;5.33;;;2.93;;
5945;SDS011;2998;48.206;16.394;2022-10-03T07:19:18;4.80;;;2.37;;
5945;SDS011;2998;48.206;16.394;2022-10-03T07:22:14;8.67;;;2.47;;
5945;SDS011;2998;48.206;16.394;2022-10-03T07:28:00;16.37;;;4.20;;
5945;SDS011;2998;48.206;16.394;2022-10-03T07:30:45;6.93;;;3.50;;
5945;SDS011;2998;48.206;16.394;2022-10-03T07:49:15;4.47;;;1.87;;
5945;SDS011;2998;48.206;16.394;2022-10-03T07:51:56;3.23;;;1.70;;
5945;SDS011;2998;48.206;16.394;2022-10-03T07:54:37;4.43;;;1.80;;
5945;SDS011;2998;48.206;16.394;2022-10-03T07:57:30;6.93;;;2.00;;
5945;SDS011;2998;48.206;16.394;2022-10-03T08:00:20;4.80;;;2.03;;
5945;SDS011;2998;48.206;16.394;2022-10-03T08:03:14;2.03;;;1.37;;
5945;SDS011;2998;48.206;16.394;2022-10-03T08:06:12;3.17;;;1.87;;
5945;SDS011;2998;48.206;16.394;2022-10-03T08:09:03;2.83;;;2.30;;
5945;SDS011;2998;48.206;16.394;2022-10-03T08:14:56;5.93;;;2.70;;
5945;SDS011;2998;48.206;16.394;2022-10-03T08:17:38;3.10;;;1.90;;
5945;SDS011;2998;48.206;16.394;2022-10-03T08:20:32;3.77;;;2.60;;
5945;SDS011;2998;48.206;16.394;2022-10-03T08:23:14;5.70;;;1.67;;
5945;SDS011;2998;48.206;16.394;2022-10-03T08:25:56;1.50;;;1.40;;
5945;SDS011;2998;48.206;16.394;2022-10-03T08:28:37;3.63;;;1.57;;
5945;SDS011;2998;48.206;16.394;2022-10-03T08:34:49;2.63;;;1.40;;
5945;SDS011;2998;48.206;16.394;2022-10-03T08:37:39;1.93;;;1.50;;
5945;SDS011;2998;48.206;16.394;2022-10-03T08:40:29;1.73;;;1.20;;
5945;SDS011;2998;48.206;16.394;2022-10-03T08:43:30;2.73;;;1.30;;
5945;SDS011;2998;48.206;16.394;2022-10-03T08:46:28;2.60;;;1.20;;
5945;SDS011;2998;48.206;16.394;2022-10-03T08:49:27;2.90;;;1.03;;
5945;SDS011;2998;48.206;16.394;2022-10-03T08:52:23;4.97;;;1.47;;
5945;SDS011;2998;48.206;16.394;2022-10-03T08:55:04;3.53;;;1.60;;
5945;SDS011;2998;48.206;16.394;2022-10-03T08:57:52;5.07;;;1.50;;
5945;SDS011;2998;48.206;16.394;2022-10-03T09:00:42;8.40;;;2.30;;
5945;SDS011;2998;48.206;16.394;2022-10-03T09:15:35;6.77;;;1.50;;
5945;SDS011;2998;48.206;16.394;2022-10-03T09:22:01;5.00;;;3.70;;
5945;SDS011;2998;48.206;16.394;2022-10-03T09:30:39;5.77;;;1.60;;
5945;SDS011;2998;48.206;16.394;2022-10-03T09:33:28;6.20;;;1.70;;
5945;SDS011;2998;48.206;16.394;2022-10-03T09:39:31;2.60;;;1.50;;
5945;SDS011;2998;48.206;16.394;2022-10-03T09:42:34;4.60;;;1.50;;
5945;SDS011;2998;48.206;16.394;2022-10-03T09:48:28;5.73;;;1.47;;
5945;SDS011;2998;48.206;16.394;2022-10-03T09:57:14;2.30;;;1.37;;
5945;SDS011;2998;48.206;16.394;2022-10-03T10:00:06;4.60;;;1.60;;
5945;SDS011;2998;48.206;16.394;2022-10-03T10:09:05;1.33;;;1.13;;
5945;SDS011;2998;48.206;16.394;2022-10-03T10:12:04;3.37;;;1.40;;
5945;SDS011;2998;48.206;16.394;2022-10-03T10:14:42;1.43;;;1.33;;
5945;SDS011;2998;48.206;16.394;2022-10-03T10:20:33;2.53;;;2.10;;
5945;SDS011;2998;48.206;16.394;2022-10-03T10:23:39;2.00;;;1.63;;
5945;SDS011;2998;48.206;16.394;2022-10-03T10:26:30;2.17;;;1.50;;
5945;SDS011;2998;48.206;16.394;2022-10-03T10:38:24;4.03;;;1.50;;
5945;SDS011;2998;48.206;16.394;2022-10-03T10:47:10;3.77;;;1.97;;
5945;SDS011;2998;48.206;16.394;2022-10-03T10:59:04;2.60;;;1.50;;
5945;SDS011;2998;48.206;16.394;2022-10-03T11:14:07;1.93;;;1.10;;
5945;SDS011;2998;48.206;16.394;2022-10-03T11:16:57;2.90;;;1.03;;
5945;SDS011;2998;48.206;16.394;2022-10-03T11:26:00;1.70;;;1.23;;
5945;SDS011;2998;48.206;16.394;2022-10-03T11:29:07;3.70;;;1.20;;
5945;SDS011;2998;48.206;16.394;2022-10-03T11:38:08;7.00;;;1.30;;
5945;SDS011;2998;48.206;16.394;2022-10-03T11:40:43;7.03;;;1.63;;
5945;SDS011;2998;48.206;16.394;2022-10-03T11:46:38;1.50;;;0.90;;
5945;SDS011;2998;48.206;16.394;2022-10-03T11:49:35;2.90;;;1.13;;
5945;SDS011;2998;48.206;16.394;2022-10-03T11:52:15;1.30;;;1.20;;
5945;SDS011;2998;48.206;16.394;2022-10-03T11:55:01;4.03;;;1.40;;
5945;SDS011;2998;48.206;16.394;2022-10-03T11:57:33;2.30;;;0.80;;
5945;SDS011;2998;48.206;16.394;2022-10-03T12:00:02;1.43;;;1.00;;
5945;SDS011;2998;48.206;16.394;2022-10-03T12:02:39;1.30;;;1.20;;
5945;SDS011;2998;48.206;16.394;2022-10-03T12:05:24;1.27;;;1.03;;
5945;SDS011;2998;48.206;16.394;2022-10-03T12:07:58;4.60;;;1.40;;
5945;SDS011;2998;48.206;16.394;2022-10-03T12:10:56;3.00;;;1.03;;
5945;SDS011;2998;48.206;16.394;2022-10-03T12:13:38;2.40;;;1.57;;
5945;SDS011;2998;48.206;16.394;2022-10-03T12:16:11;3.53;;;1.00;;
5945;SDS011;2998;48.206;16.394;2022-10-03T12:18:55;3.63;;;0.93;;
5945;SDS011;2998;48.206;16.394;2022-10-03T12:21:27;2.70;;;1.20;;
5945;SDS011;2998;48.206;16.394;2022-10-03T12:24:04;3.10;;;1.10;;
5945;SDS011;2998;48.206;16.394;2022-10-03T12:26:48;4.87;;;1.10;;
5945;SDS011;2998;48.206;16.394;2022-10-03T12:29:20;0.90;;;0.90;;
5945;SDS011;2998;48.206;16.394;2022-10-03T12:31:52;2.80;;;1.00;;
5945;SDS011;2998;48.206;16.394;2022-10-03T12:34:33;5.43;;;1.60;;
5945;SDS011;2998;48.206;16.394;2022-10-03T12:37:10;6.70;;;1.10;;
5945;SDS011;2998;48.206;16.394;2022-10-03T12:39:51;2.37;;;1.10;;
5945;SDS011;2998;48.206;16.394;2022-10-03T12:42:29;1.57;;;1.47;;
5945;SDS011;2998;48.206;16.394;2022-10-03T12:45:02;4.20;;;1.30;;
5945;SDS011;2998;48.206;16.394;2022-10-03T12:47:36;2.30;;;1.30;;
5945;SDS011;2998;48.206;16.394;2022-10-03T12:50:29;1.20;;;1.10;;
5945;SDS011;2998;48.206;16.394;2022-10-03T12:53:11;1.43;;;1.00;;
5945;SDS011;2998;48.206;16.394;2022-10-03T12:56:09;3.47;;;1.20;;
5945;SDS011;2998;48.206;16.394;2022-10-03T12:58:47;2.43;;;0.87;;
5945;SDS011;2998;48.206;16.394;2022-10-03T13:01:24;1.90;;;0.93;;
5945;SDS011;2998;48.206;16.394;2022-10-03T13:03:58;5.03;;;1.33;;
5945;SDS011;2998;48.206;16.394;2022-10-03T13:09:51;1.80;;;1.27;;
5945;SDS011;2998;48.206;16.394;2022-10-03T13:12:38;1.97;;;1.17;;
5945;SDS011;2998;48.206;16.394;2022-10-03T13:18:32;1.20;;;1.10;;
5945;SDS011;2998;48.206;16.394;2022-10-03T13:21:08;1.23;;;1.13;;
5945;SDS011;2998;48.206;16.394;2022-10-03T13:24:00;5.37;;;1.67;;
5945;SDS011;2998;48.206;16.394;2022-10-03T13:26:38;4.17;;;1.50;;
5945;SDS011;2998;48.206;16.394;2022-10-03T13:29:14;2.13;;;1.17;;
5945;SDS011;2998;48.206;16.394;2022-10-03T13:31:52;2.40;;;1.37;;
5945;SDS011;2998;48.206;16.394;2022-10-03T13:34:43;2.33;;;1.30;;
5945;SDS011;2998;48.206;16.394;2022-10-03T13:37:19;3.63;;;2.43;;
5945;SDS011;2998;48.206;16.394;2022-10-03T13:39:59;2.83;;;1.17;;
5945;SDS011;2998;48.206;16.394;2022-10-03T13:42:31;6.13;;;1.70;;
5945;SDS011;2998;48.206;16.394;2022-10-03T13:45:04;3.73;;;1.97;;
5945;SDS011;2998;48.206;16.394;2022-10-03T13:47:43;1.90;;;1.80;;
5945;SDS011;2998;48.206;16.394;2022-10-03T13:50:13;4.03;;;1.93;;
5945;SDS011;2998;48.206;16.394;2022-10-03T13:52:44;3.00;;;1.50;;
5945;SDS011;2998;48.206;16.394;2022-10-03T13:55:21;2.43;;;1.37;;
5945;SDS011;2998;48.206;16.394;2022-10-03T13:57:58;2.73;;;1.30;;
5945;SDS011;2998;48.206;16.394;2022-10-03T14:00:39;2.20;;;2.10;;
5945;SDS011;2998;48.206;16.394;2022-10-03T14:03:18;1.97;;;1.20;;
5945;SDS011;2998;48.206;16.394;2022-10-03T14:08:52;1.77;;;1.67;;
5945;SDS011;2998;48.206;16.394;2022-10-03T14:11:32;1.33;;;0.90;;
5945;SDS011;2998;48.206;16.394;2022-10-03T14:14:14;3.17;;;1.67;;
5945;SDS011;2998;48.206;16.394;2022-10-03T14:16:52;0.93;;;0.90;;
5945;SDS011;2998;48.206;16.394;2022-10-03T14:19:29;1.20;;;1.10;;
5945;SDS011;2998;48.206;16.394;2022-10-03T14:22:10;1.53;;;1.43;;
5945;SDS011;2998;48.206;16.394;2022-10-03T14:24:48;4.90;;;1.70;;
5945;SDS011;2998;48.206;16.394;2022-10-03T14:27:29;1.10;;;0.90;;
5945;SDS011;2998;48.206;16.394;2022-10-03T14:30:04;3.83;;;1.67;;
5945;SDS011;2998;48.206;16.394;2022-10-03T14:32:37;2.60;;;1.60;;
5945;SDS011;2998;48.206;16.394;2022-10-03T14:35:17;2.87;;;0.93;;
5945;SDS011;2998;48.206;16.394;2022-10-03T14:37:55;1.50;;;1.10;;
5945;SDS011;2998;48.206;16.394;2022-10-03T14:40:26;1.93;;;1.37;;
5945;SDS011;2998;48.206;16.394;2022-10-03T14:43:04;1.00;;;0.87;;
5945;SDS011;2998;48.206;16.394;2022-10-03T14:45:42;2.47;;;1.13;;
5945;SDS011;2998;48.206;16.394;2022-10-03T14:48:13;2.23;;;2.03;;
5945;SDS011;2998;48.206;16.394;2022-10-03T14:50:43;4.30;;;3.27;;
5945;SDS011;2998;48.206;16.394;2022-10-03T14:53:15;5.73;;;2.20;;
5945;SDS011;2998;48.206;16.394;2022-10-03T14:55:51;4.23;;;1.90;;
5945;SDS011;2998;48.206;16.394;2022-10-03T14:58:24;2.30;;;1.30;;
5945;SDS011;2998;48.206;16.394;2022-10-03T15:01:00;2.90;;;1.60;;
5945;SDS011;2998;48.206;16.394;2022-10-03T15:03:32;2.90;;;1.53;;
5945;SDS011;2998;48.206;16.394;2022-10-03T15:06:20;1.20;;;1.10;;
5945;SDS011;2998;48.206;16.394;2022-10-03T15:08:59;2.30;;;1.60;;
5945;SDS011;2998;48.206;16.394;2022-10-03T15:11:30;2.50;;;1.73;;
5945;SDS011;2998;48.206;16.394;2022-10-03T15:14:01;2.30;;;1.77;;
5945;SDS011;2998;48.206;16.394;2022-10-03T15:16:32;2.90;;;1.60;;
5945;SDS011;2998;48.206;16.394;2022-10-03T15:19:03;2.50;;;1.20;;
5945;SDS011;2998;48.206;16.394;2022-10-03T15:21:35;1.10;;;1.00;;
5945;SDS011;2998;48.206;16.394;2022-10-03T15:24:05;2.60;;;1.40;;
5945;SDS011;2998;48.206;16.394;2022-10-03T15:26:46;6.23;;;1.90;;
5945;SDS011;2998;48.206;16.394;2022-10-03T15:29:19;3.10;;;1.40;;
5945;SDS011;2998;48.206;16.394;2022-10-03T15:31:47;2.00;;;1.23;;
5945;SDS011;2998;48.206;16.394;2022-10-03T15:34:16;1.20;;;1.10;;
5945;SDS011;2998;48.206;16.394;2022-10-03T15:36:46;6.23;;;1.30;;
5945;SDS011;2998;48.206;16.394;2022-10-03T15:39:17;4.00;;;1.57;;
5945;SDS011;2998;48.206;16.394;2022-10-03T15:41:48;1.20;;;1.10;;
5945;SDS011;2998;48.206;16.394;2022-10-03T15:44:22;5.50;;;1.67;;
5945;SDS011;2998;48.206;16.394;2022-10-03T15:46:58;1.47;;;1.37;;
5945;SDS011;2998;48.206;16.394;2022-10-03T15:49:31;1.63;;;1.17;;
5945;SDS011;2998;48.206;16.394;2022-10-03T15:52:06;1.70;;;1.30;;
5945;SDS011;2998;48.206;16.394;2022-10-03T15:54:39;1.53;;;0.90;;
5945;SDS011;2998;48.206;16.394;2022-10-03T15:57:16;1.53;;;1.43;;
5945;SDS011;2998;48.206;16.394;2022-10-03T15:59:46;2.97;;;1.60;;
5945;SDS011;2998;48.206;16.394;2022-10-03T16:02:20;2.30;;;2.13;;
5945;SDS011;2998;48.206;16.394;2022-10-03T16:04:52;2.20;;;1.57;;
5945;SDS011;2998;48.206;16.394;2022-10-03T16:07:24;1.60;;;1.50;;
5945;SDS011;2998;48.206;16.394;2022-10-03T16:09:59;2.13;;;1.70;;
5945;SDS011;2998;48.206;16.394;2022-10-03T16:12:46;2.17;;;1.93;;
5945;SDS011;2998;48.206;16.394;2022-10-03T16:15:22;2.00;;;1.83;;
5945;SDS011;2998;48.206;16.394;2022-10-03T16:17:54;11.77;;;2.40;;
5945;SDS011;2998;48.206;16.394;2022-10-03T16:20:24;2.60;;;1.97;;
5945;SDS011;2998;48.206;16.394;2022-10-03T16:22:56;3.73;;;2.20;;
5945;SDS011;2998;48.206;16.394;2022-10-03T16:25:25;9.67;;;2.97;;
5945;SDS011;2998;48.206;16.394;2022-10-03T16:27:56;3.93;;;3.50;;
5945;SDS011;2998;48.206;16.394;2022-10-03T16:30:28;4.83;;;3.13;;
5945;SDS011;2998;48.206;16.394;2022-10-03T16:33:00;3.80;;;3.50;;
5945;SDS011;2998;48.206;16.394;2022-10-03T16:35:31;6.87;;;5.00;;
5945;SDS011;2998;48.206;16.394;2022-10-03T16:38:03;3.83;;;3.50;;
5945;SDS011;2998;48.206;16.394;2022-10-03T16:40:33;5.37;;;3.93;;
5945;SDS011;2998;48.206;16.394;2022-10-03T16:43:03;3.03;;;2.77;;
5945;SDS011;2998;48.206;16.394;2022-10-03T16:45:38;5.87;;;2.63;;
5945;SDS011;2998;48.206;16.394;2022-10-03T16:48:12;3.30;;;2.20;;
5945;SDS011;2998;48.206;16.394;2022-10-03T16:51:03;4.87;;;3.10;;
5945;SDS011;2998;48.206;16.394;2022-10-03T16:53:33;6.33;;;2.70;;
5945;SDS011;2998;48.206;16.394;2022-10-03T16:56:03;7.17;;;5.50;;
5945;SDS011;2998;48.206;16.394;2022-10-03T16:58:33;3.97;;;3.27;;
5945;SDS011;2998;48.206;16.394;2022-10-03T17:01:07;4.53;;;3.93;;
5945;SDS011;2998;48.206;16.394;2022-10-03T17:03:57;7.17;;;4.70;;
5945;SDS011;2998;48.206;16.394;2022-10-03T17:06:37;5.50;;;3.50;;
5945;SDS011;2998;48.206;16.394;2022-10-03T17:09:07;8.67;;;5.30;;
5945;SDS011;2998;48.206;16.394;2022-10-03T17:11:45;8.97;;;5.23;;
5945;SDS011;2998;48.206;16.394;2022-10-03T17:14:16;7.50;;;5.00;;
5945;SDS011;2998;48.206;16.394;2022-10-03T17:16:48;5.90;;;4.60;;
5945;SDS011;2998;48.206;16.394;2022-10-03T17:19:19;9.60;;;5.80;;
5945;SDS011;2998;48.206;16.394;2022-10-03T17:21:53;6.00;;;5.50;;
5945;SDS011;2998;48.206;16.394;2022-10-03T17:24:26;6.03;;;4.40;;
5945;SDS011;2998;48.206;16.394;2022-10-03T17:27:03;8.37;;;5.60;;
5945;SDS011;2998;48.206;16.394;2022-10-03T17:29:36;6.17;;;4.83;;
5945;SDS011;2998;48.206;16.394;2022-10-03T17:32:11;8.60;;;3.77;;
5945;SDS011;2998;48.206;16.394;2022-10-03T17:34:42;6.37;;;3.97;;
5945;SDS011;2998;48.206;16.394;2022-10-03T17:37:13;5.37;;;3.00;;
5945;SDS011;2998;48.206;16.394;2022-10-03T17:39:53;7.03;;;3.03;;
5945;SDS011;2998;48.206;16.394;2022-10-03T17:42:26;3.87;;;3.43;;
5945;SDS011;2998;48.206;16.394;2022-10-03T17:45:02;4.90;;;3.50;;
5945;SDS011;2998;48.206;16.394;2022-10-03T17:47:42;7.80;;;4.30;;
5945;SDS011;2998;48.206;16.394;2022-10-03T17:50:18;5.73;;;4.90;;
5945;SDS011;2998;48.206;16.394;2022-10-03T17:52:49;3.93;;;3.37;;
5945;SDS011;2998;48.206;16.394;2022-10-03T17:55:20;3.13;;;2.80;;
5945;SDS011;2998;48.206;16.394;2022-10-03T17:57:53;3.00;;;2.80;;
5945;SDS011;2998;48.206;16.394;2022-10-03T18:00:23;2.40;;;2.30;;
5945;SDS011;2998;48.206;16.394;2022-10-03T18:02:56;6.23;;;2.70;;
5945;SDS011;2998;48.206;16.394;2022-10-03T18:05:27;2.10;;;1.90;;
5945;SDS011;2998;48.206;16.394;2022-10-03T18:07:59;3.10;;;2.03;;
5945;SDS011;2998;48.206;16.394;2022-10-03T18:10:29;4.10;;;2.00;;
5945;SDS011;2998;48.206;16.394;2022-10-03T18:13:00;5.27;;;2.47;;
5945;SDS011;2998;48.206;16.394;2022-10-03T18:15:39;4.20;;;2.00;;
5945;SDS011;2998;48.206;16.394;2022-10-03T18:18:25;5.23;;;2.60;;
5945;SDS011;2998;48.206;16.394;2022-10-03T18:21:23;10.33;;;2.30;;
5945;SDS011;2998;48.206;16.394;2022-10-03T18:27:17;19.43;;;14.13;;
5945;SDS011;2998;48.206;16.394;2022-10-03T18:29:57;6.33;;;5.73;;
5945;SDS011;2998;48.206;16.394;2022-10-03T18:32:27;5.90;;;2.63;;
5945;SDS011;2998;48.206;16.394;2022-10-03T18:35:02;6.77;;;2.57;;
5945;SDS011;2998;48.206;16.394;2022-10-03T18:40:27;6.73;;;5.60;;
5945;SDS011;2998;48.206;16.394;2022-10-03T18:42:56;8.10;;;7.30;;
5945;SDS011;2998;48.206;16.394;2022-10-03T18:45:27;4.70;;;3.63;;
5945;SDS011;2998;48.206;16.394;2022-10-03T18:47:58;3.83;;;2.60;;
5945;SDS011;2998;48.206;16.394;2022-10-03T18:50:34;7.93;;;3.87;;
5945;SDS011;2998;48.206;16.394;2022-10-03T18:53:13;6.33;;;4.00;;
5945;SDS011;2998;48.206;16.394;2022-10-03T18:55:43;4.60;;;3.90;;
5945;SDS011;2998;48.206;16.394;2022-10-03T18:58:16;7.40;;;3.40;;
5945;SDS011;2998;48.206;16.394;2022-10-03T19:00:47;7.20;;;3.90;;
5945;SDS011;2998;48.206;16.394;2022-10-03T19:03:17;3.83;;;3.47;;
5945;SDS011;2998;48.206;16.394;2022-10-03T19:05:50;4.10;;;3.47;;
5945;SDS011;2998;48.206;16.394;2022-10-03T19:08:21;4.70;;;3.40;;
5945;SDS011;2998;48.206;16.394;2022-10-03T19:10:52;3.43;;;3.20;;
5945;SDS011;2998;48.206;16.394;2022-10-03T19:13:27;3.70;;;3.40;;
5945;SDS011;2998;48.206;16.394;2022-10-03T19:19:01;3.50;;;3.03;;
5945;SDS011;2998;48.206;16.394;2022-10-03T19:21:34;7.27;;;3.83;;
5945;SDS011;2998;48.206;16.394;2022-10-03T19:24:05;3.10;;;2.80;;
5945;SDS011;2998;48.206;16.394;2022-10-03T19:26:38;3.50;;;2.50;;
5945;SDS011;2998;48.206;16.394;2022-10-03T19:29:12;3.37;;;1.67;;
5945;SDS011;2998;48.206;16.394;2022-10-03T19:31:42;5.50;;;3.27;;
5945;SDS011;2998;48.206;16.394;2022-10-03T19:34:13;9.13;;;2.83;;
5945;SDS011;2998;48.206;16.394;2022-10-03T19:36:46;3.90;;;2.77;;
5945;SDS011;2998;48.206;16.394;2022-10-03T19:39:15;5.40;;;2.50;;
5945;SDS011;2998;48.206;16.394;2022-10-03T19:41:45;4.93;;;2.30;;
5945;SDS011;2998;48.206;16.394;2022-10-03T19:44:18;5.10;;;2.80;;
5945;SDS011;2998;48.206;16.394;2022-10-03T19:46:51;5.90;;;2.47;;
5945;SDS011;2998;48.206;16.394;2022-10-03T19:49:27;7.00;;;3.10;;
5945;SDS011;2998;48.206;16.394;2022-10-03T19:52:09;3.27;;;2.20;;
5945;SDS011;2998;48.206;16.394;2022-10-03T19:57:36;3.83;;;2.73;;
5945;SDS011;2998;48.206;16.394;2022-10-03T20:00:06;3.37;;;2.90;;
5945;SDS011;2998;48.206;16.394;2022-10-03T20:02:51;6.73;;;3.17;;
5945;SDS011;2998;48.206;16.394;2022-10-03T20:05:21;3.80;;;2.70;;
5945;SDS011;2998;48.206;16.394;2022-10-03T20:07:53;5.83;;;3.47;;
5945;SDS011;2998;48.206;16.394;2022-10-03T20:10:35;4.10;;;2.83;;
5945;SDS011;2998;48.206;16.394;2022-10-03T20:13:07;5.10;;;3.00;;
5945;SDS011;2998;48.206;16.394;2022-10-03T20:15:39;9.90;;;2.33;;